This is the latest recevied weather packets stored in our database for station/object SV2LPQ-2. If no packets are shown the sender has not sent any weather packets the latest 10 day(s).
| Time | Temp. | Humidity | Pressure | Rain* | Wind** | Luminosity | Snow |
|---|---|---|---|---|---|---|---|
| 1777487645 | 17.78° C | 58% | 1042.5 hPa | 0 mm | - | - | - |
| 1777486645 | 17.78° C | 58% | 1042.5 hPa | 0 mm | - | - | - |
| 1777486145 | 17.78° C | 58% | 1042.5 hPa | 0 mm | - | - | - |
| 1777485645 | 17.78° C | 58% | 1042.5 hPa | 0 mm | - | - | - |
| 1777484144 | 18.33° C | 57% | 1042.5 hPa | 0 mm | - | - | - |
| 1777483644 | 18.33° C | 56% | 1042.5 hPa | 0 mm | - | - | - |
| 1777483143 | 18.33° C | 55% | 1042.5 hPa | 0 mm | - | - | - |
| 1777480642 | 20.56° C | 52% | 1042.5 hPa | 0 mm | - | - | - |
| 1777480142 | 20.56° C | 51% | 1042.5 hPa | 0 mm | - | - | - |
| 1777479142 | 21.67° C | 50% | 1042.5 hPa | 0 mm | - | - | - |
| 1777477641 | 22.78° C | 49% | 1042.5 hPa | 0 mm | - | - | - |
| 1777477141 | 23.33° C | 48% | 1042.5 hPa | 0 mm | - | - | - |
| 1777476140 | 24.44° C | 47% | 1042.5 hPa | 0 mm | - | - | - |
| 1777473139 | 26.11° C | 45% | 1042.5 hPa | 0 mm | - | - | - |
| 1777472639 | 26.11° C | 46% | 1042.5 hPa | 0 mm | - | - | - |
| 1777471138 | 25.56° C | 49% | 1042.5 hPa | 0 mm | - | - | - |
| 1777468637 | 25° C | 50% | 1042.5 hPa | 0 mm | - | - | - |
| 1777468137 | 25° C | 50% | 1042.5 hPa | 0 mm | - | - | - |
| 1777466137 | 25° C | 50% | 1042.5 hPa | 0 mm | - | - | - |
| 1777465636 | 25° C | 49% | 1042.5 hPa | 0 mm | - | - | - |
| 1777465136 | 25° C | 49% | 1042.5 hPa | 0 mm | - | - | - |
| 1777464136 | 24.44° C | 50% | 1042.5 hPa | 0 mm | - | - | - |
| 1777463636 | 24.44° C | 50% | 1042.5 hPa | 0 mm | - | - | - |
| 1777462635 | 23.89° C | 50% | 1042.5 hPa | 0 mm | - | - | - |
| 1777462135 | 23.89° C | 50% | 1042.5 hPa | 0 mm | - | - | - |
* Rain latest hour (hover to see other rain measurements)
** Current wind speed in m/s (hover to see current wind gust speed)